createdAt,value
2022-10-11T00:00:40.125Z,6.55
2022-10-11T00:01:49.392Z,5.82
2022-10-11T00:02:51.032Z,6.10
2022-10-11T00:03:53.544Z,5.03
2022-10-11T00:04:55.285Z,5.63
2022-10-11T00:05:57.982Z,6.40
2022-10-11T00:06:59.545Z,5.40
2022-10-11T00:08:02.130Z,5.80
2022-10-11T00:09:04.034Z,6.10
2022-10-11T00:10:08.436Z,5.28
2022-10-11T00:11:10.400Z,5.93
2022-10-11T00:12:13.170Z,5.85
2022-10-11T00:13:14.674Z,5.82
2022-10-11T00:14:18.510Z,5.45
2022-10-11T00:15:21.963Z,5.65
2022-10-11T00:16:24.465Z,6.03
2022-10-11T00:17:26.193Z,5.50
2022-10-11T00:18:28.683Z,5.63
2022-10-11T00:19:30.226Z,5.50
2022-10-11T00:20:32.775Z,5.45
2022-10-11T00:21:34.375Z,6.00
2022-10-11T00:22:37.880Z,5.72
2022-10-11T00:23:40.878Z,6.20
2022-10-11T00:24:42.429Z,5.22
2022-10-11T00:25:44.887Z,5.70
2022-10-11T00:26:47.081Z,6.30
2022-10-11T00:27:51.783Z,6.07
2022-10-11T00:28:53.349Z,6.25
2022-10-11T00:29:57.274Z,6.80
2022-10-11T00:46:20.468Z,5.50
2022-10-11T00:47:24.519Z,5.90
2022-10-11T00:48:32.645Z,7.32
2022-10-11T00:49:43.363Z,6.22
2022-10-11T00:50:45.133Z,5.85
2022-10-11T00:51:53.316Z,6.78
2022-10-11T00:52:58.415Z,6.13
2022-10-11T00:54:02.828Z,6.57
2022-10-11T00:55:07.327Z,5.80
2022-10-11T00:56:15.676Z,6.70
2022-10-11T00:57:20.224Z,5.97
2022-10-11T00:58:24.001Z,5.85
2022-10-11T00:59:29.512Z,7.63
2022-10-11T01:00:33.753Z,7.05
2022-10-11T01:01:36.899Z,8.52
2022-10-11T01:02:41.096Z,7.22
2022-10-11T01:03:44.003Z,7.53
2022-10-11T01:04:46.788Z,6.35
2022-10-11T01:05:48.556Z,7.38
2022-10-11T01:06:52.705Z,7.50
2022-10-11T01:07:54.481Z,7.68
2022-10-11T01:08:57.452Z,6.65
2022-10-11T01:09:59.043Z,7.38
2022-10-11T01:26:52.159Z,6.97
2022-10-11T01:28:13.921Z,6.85
2022-10-11T01:29:26.704Z,7.05
2022-10-11T01:30:32.713Z,7.60
2022-10-11T01:31:40.450Z,7.80
2022-10-11T01:32:51.711Z,6.93
2022-10-11T01:33:57.415Z,8.55
2022-10-11T01:35:06.476Z,7.38
2022-10-11T01:36:15.831Z,8.00
2022-10-11T01:37:26.771Z,6.95
2022-10-11T01:38:36.257Z,6.93
2022-10-11T01:39:44.699Z,7.15
2022-10-11T01:40:52.046Z,8.82
2022-10-11T01:41:56.314Z,7.40
2022-10-11T01:43:01.041Z,8.00
2022-10-11T01:44:03.700Z,7.68
2022-10-11T01:45:08.546Z,7.80
2022-10-11T01:46:12.830Z,7.63
2022-10-11T01:47:20.279Z,6.95
2022-10-11T01:48:21.940Z,8.00
2022-10-11T01:49:24.917Z,7.10
2022-10-11T01:50:45.588Z,8.52
2022-10-11T01:51:51.878Z,7.72
2022-10-11T01:52:55.397Z,8.95
2022-10-11T01:54:25.689Z,7.65
2022-10-11T01:55:37.622Z,7.53
2022-10-11T01:56:55.530Z,8.43
2022-10-11T01:58:07.077Z,7.70
2022-10-11T01:59:28.283Z,7.45
2022-10-11T02:00:37.146Z,8.00
2022-10-11T02:01:55.291Z,7.05
2022-10-11T02:03:07.971Z,7.85
2022-10-11T02:04:17.590Z,6.72
2022-10-11T02:05:25.694Z,7.38
2022-10-11T02:06:34.480Z,8.35
2022-10-11T02:07:43.018Z,7.22
2022-10-11T02:08:53.244Z,7.25
2022-10-11T02:10:03.698Z,8.45
2022-10-11T02:11:11.522Z,8.38
2022-10-11T02:12:21.130Z,7.78
2022-10-11T02:13:28.475Z,7.47
2022-10-11T02:14:34.183Z,7.90
2022-10-11T02:15:40.317Z,7.15
2022-10-11T02:16:49.483Z,8.25
2022-10-11T02:17:55.260Z,8.15
2022-10-11T02:18:59.536Z,8.23
2022-10-11T02:20:06.733Z,7.40
2022-10-11T02:21:13.228Z,8.15
2022-10-11T02:22:19.551Z,9.07
2022-10-11T02:23:26.538Z,7.55
2022-10-11T02:24:33.244Z,7.72
2022-10-11T02:25:38.108Z,7.63
2022-10-11T02:26:43.784Z,8.40
2022-10-11T02:27:49.130Z,8.50
2022-10-11T02:28:54.387Z,7.40
2022-10-11T02:30:01.058Z,6.68
2022-10-11T02:31:05.926Z,8.02
2022-10-11T02:32:11.074Z,7.75
2022-10-11T02:33:17.355Z,6.70
2022-10-11T02:34:25.001Z,7.57
2022-10-11T02:35:29.411Z,7.47
2022-10-11T02:36:43.144Z,7.30
2022-10-11T02:37:54.317Z,7.15
2022-10-11T02:39:04.218Z,6.70
2022-10-11T02:40:14.537Z,7.55
2022-10-11T02:41:23.080Z,7.28
2022-10-11T02:42:30.773Z,7.93
2022-10-11T02:43:37.772Z,7.55
2022-10-11T02:44:43.792Z,7.45
2022-10-11T02:45:51.273Z,8.00
2022-10-11T02:46:54.394Z,7.32
2022-10-11T02:47:58.864Z,8.02
2022-10-11T02:49:01.828Z,7.35
2022-10-11T02:50:05.809Z,7.43
2022-10-11T02:51:12.209Z,7.80
2022-10-11T02:52:15.124Z,7.97
2022-10-11T02:53:17.499Z,7.43
2022-10-11T02:54:20.038Z,7.72
2022-10-11T02:55:21.760Z,8.05
2022-10-11T02:56:24.238Z,8.00
2022-10-11T02:57:25.775Z,8.23
2022-10-11T02:58:28.411Z,7.60
2022-10-11T02:59:29.974Z,8.02
2022-10-11T03:00:35.388Z,7.78
2022-10-11T03:01:37.074Z,7.55
2022-10-11T03:02:39.634Z,8.10
2022-10-11T03:03:42.504Z,7.32
2022-10-11T03:04:45.293Z,6.97
2022-10-11T03:05:46.937Z,7.82
2022-10-11T03:06:49.442Z,7.50
2022-10-11T03:07:50.941Z,8.43
2022-10-11T03:08:53.446Z,7.28
2022-10-11T03:09:54.956Z,8.07
2022-10-11T03:10:57.512Z,6.72
2022-10-11T03:11:59.034Z,8.30
2022-10-11T03:13:01.533Z,7.70
2022-10-11T03:14:03.105Z,7.57
2022-10-11T03:15:06.645Z,6.90
2022-10-11T03:16:08.384Z,7.75
2022-10-11T03:17:34.526Z,7.15
2022-10-11T03:18:33.915Z,7.47
2022-10-11T03:19:36.803Z,7.43
2022-10-11T03:20:39.293Z,7.07
2022-10-11T03:21:40.853Z,8.05
2022-10-11T03:22:43.324Z,7.35
2022-10-11T03:23:44.845Z,7.25
2022-10-11T03:24:47.445Z,6.78
2022-10-11T03:25:48.962Z,7.72
2022-10-11T03:26:52.683Z,7.90
2022-10-11T03:27:54.198Z,7.60
2022-10-11T03:28:56.761Z,8.45
2022-10-11T03:29:58.768Z,7.18
2022-10-11T03:31:01.239Z,7.72
2022-10-11T03:32:03.157Z,6.93
2022-10-11T03:33:06.132Z,6.88
2022-10-11T03:34:07.916Z,7.45
2022-10-11T03:35:11.816Z,6.75
2022-10-11T03:36:14.376Z,6.97
2022-10-11T03:37:15.942Z,6.25
2022-10-11T03:38:21.595Z,7.20
2022-10-11T03:39:23.197Z,6.18
2022-10-11T03:40:25.830Z,7.95
2022-10-11T03:41:27.396Z,6.05
2022-10-11T03:42:30.187Z,7.43
2022-10-11T03:43:31.793Z,6.95
2022-10-11T03:44:34.331Z,7.70
2022-10-11T03:45:36.477Z,7.40
2022-10-11T03:46:38.990Z,7.20
2022-10-11T03:47:40.691Z,6.80
2022-10-11T03:48:43.145Z,8.52
2022-10-11T03:49:44.668Z,7.90
2022-10-11T03:50:49.302Z,6.60
2022-10-11T03:51:50.823Z,6.97
2022-10-11T03:52:53.315Z,6.53
2022-10-11T03:53:54.835Z,6.75
2022-10-11T03:54:57.397Z,6.90
2022-10-11T03:55:58.965Z,6.43
2022-10-11T03:57:01.442Z,7.82
2022-10-11T03:58:03.019Z,7.75
2022-10-11T03:59:05.508Z,6.47
2022-10-11T04:00:08.234Z,8.13
2022-10-11T04:01:17.337Z,7.30
2022-10-11T04:02:18.967Z,6.80
2022-10-11T04:03:21.449Z,7.55
2022-10-11T04:04:23.025Z,7.35
2022-10-11T04:05:25.634Z,6.85
2022-10-11T04:06:28.467Z,7.07
2022-10-11T04:07:34.193Z,6.90
2022-10-11T04:08:35.799Z,7.38
2022-10-11T04:09:38.262Z,6.63
2022-10-11T04:10:40.294Z,7.22
2022-10-11T04:11:42.943Z,7.45
2022-10-11T04:12:44.514Z,7.18
2022-10-11T04:13:47.111Z,6.45
2022-10-11T04:14:48.640Z,7.43
2022-10-11T04:15:51.378Z,6.55
2022-10-11T04:16:52.976Z,7.10
2022-10-11T04:17:55.525Z,7.72
2022-10-11T04:18:57.055Z,6.78
2022-10-11T04:19:59.547Z,9.35
2022-10-11T04:21:01.087Z,7.47
2022-10-11T04:22:07.250Z,7.53
2022-10-11T04:23:09.966Z,7.22
2022-10-11T04:24:13.899Z,7.03
2022-10-11T04:25:15.828Z,6.43
2022-10-11T04:26:18.330Z,6.70
2022-10-11T04:27:20.173Z,7.00
2022-10-11T04:28:22.763Z,7.18
2022-10-11T04:29:28.799Z,7.50
2022-10-11T04:30:35.104Z,8.18
2022-10-11T04:31:36.761Z,6.72
2022-10-11T04:32:39.295Z,7.10
2022-10-11T04:33:40.829Z,7.03
2022-10-11T04:34:43.831Z,6.80
2022-10-11T04:35:45.352Z,7.10
2022-10-11T04:36:49.978Z,6.70
2022-10-11T04:37:53.052Z,6.78
2022-10-11T04:38:56.127Z,6.90
2022-10-11T04:39:57.721Z,6.40
2022-10-11T04:41:07.592Z,6.68
2022-10-11T04:42:10.321Z,6.43
2022-10-11T04:43:11.984Z,7.25
2022-10-11T04:44:14.551Z,8.15
2022-10-11T04:45:17.428Z,7.25
2022-10-11T04:46:18.944Z,6.90
2022-10-11T04:47:21.751Z,7.93
2022-10-11T04:48:23.259Z,7.35
2022-10-11T04:49:25.773Z,6.82
2022-10-11T04:50:27.334Z,8.70
2022-10-11T04:51:30.259Z,7.50
2022-10-11T04:52:31.844Z,7.57
2022-10-11T04:53:35.683Z,8.38
2022-10-11T04:54:37.244Z,10.70
2022-10-11T04:55:39.735Z,8.02
2022-10-11T04:56:41.282Z,7.97
2022-10-11T04:57:44.024Z,7.78
2022-10-11T04:58:48.031Z,7.57
2022-10-11T04:59:50.769Z,8.73
2022-10-11T05:00:52.307Z,7.38
2022-10-11T05:01:54.864Z,7.45
2022-10-11T05:02:56.927Z,7.35
2022-10-11T05:03:59.590Z,8.30
2022-10-11T05:05:02.188Z,7.78
2022-10-11T05:06:05.835Z,7.63
2022-10-11T05:07:08.636Z,7.55
2022-10-11T05:08:10.163Z,7.18
2022-10-11T05:09:14.070Z,7.43
2022-10-11T05:10:15.797Z,7.38
2022-10-11T05:11:18.930Z,7.40
2022-10-11T05:12:20.459Z,7.22
2022-10-11T05:13:22.948Z,7.43
2022-10-11T05:14:24.799Z,7.20
2022-10-11T05:15:27.303Z,7.93
2022-10-11T05:16:29.086Z,7.95
2022-10-11T05:17:32.144Z,7.82
2022-10-11T05:18:34.750Z,7.97
2022-10-11T05:19:37.304Z,7.82
2022-10-11T05:20:38.991Z,8.48
2022-10-11T05:21:41.709Z,8.35
2022-10-11T05:22:43.227Z,9.13
2022-10-11T05:23:46.093Z,7.68
2022-10-11T05:24:48.973Z,8.13
2022-10-11T05:25:51.500Z,8.68
2022-10-11T05:26:53.098Z,8.07
2022-10-11T05:27:55.638Z,9.55
2022-10-11T05:28:57.463Z,8.35
2022-10-11T05:30:00.018Z,8.68
2022-10-11T05:31:01.595Z,8.00
2022-10-11T05:32:04.321Z,9.15
2022-10-11T05:33:05.906Z,7.63
2022-10-11T05:34:08.480Z,6.43
2022-10-11T05:35:10.282Z,7.25
2022-10-11T05:36:13.257Z,7.20
2022-10-11T05:37:14.953Z,7.38
2022-10-11T05:38:17.884Z,7.85
2022-10-11T05:39:20.435Z,8.55
2022-10-11T05:40:23.299Z,6.57
2022-10-11T05:41:25.831Z,8.00
2022-10-11T05:42:27.377Z,9.23
2022-10-11T05:43:30.589Z,8.82
2022-10-11T05:44:33.097Z,9.90
2022-10-11T05:45:36.808Z,8.93
2022-10-11T05:46:39.857Z,8.68
2022-10-11T05:47:41.341Z,10.32
2022-10-11T05:48:43.842Z,10.00
2022-10-11T05:49:45.358Z,11.20
2022-10-11T05:50:47.978Z,9.90
2022-10-11T05:51:49.564Z,10.98
2022-10-11T05:52:52.343Z,8.30
2022-10-11T05:53:54.856Z,10.52
2022-10-11T05:54:56.341Z,9.40
2022-10-11T05:56:00.517Z,9.27
2022-10-11T05:57:02.013Z,8.50
2022-10-11T05:58:04.867Z,10.15
2022-10-11T05:59:06.483Z,8.70
2022-10-11T06:00:10.337Z,10.23
2022-10-11T06:01:22.354Z,10.82
2022-10-11T06:02:25.998Z,10.88
2022-10-11T06:03:28.077Z,10.93
2022-10-11T06:04:30.761Z,10.32
2022-10-11T06:05:33.881Z,11.30
2022-10-11T06:06:36.614Z,10.38
2022-10-11T06:07:39.171Z,10.68
2022-10-11T06:08:41.685Z,11.10
2022-10-11T06:09:44.265Z,12.43
2022-10-11T06:10:45.890Z,12.75
2022-10-11T06:11:50.121Z,12.75
2022-10-11T06:12:51.733Z,12.85
2022-10-11T06:13:55.533Z,12.55
2022-10-11T06:14:58.342Z,13.40
2022-10-11T06:15:59.945Z,12.60
2022-10-11T06:17:02.481Z,12.48
2022-10-11T06:18:05.231Z,15.65
2022-10-11T06:19:07.716Z,15.82
2022-10-11T06:20:10.188Z,14.63
2022-10-11T06:21:13.184Z,15.40
2022-10-11T06:22:14.825Z,17.30
2022-10-11T06:23:17.299Z,16.35
2022-10-11T06:24:18.952Z,16.38
2022-10-11T06:25:22.497Z,15.48
2022-10-11T06:26:24.041Z,16.42
2022-10-11T06:27:27.862Z,18.02
2022-10-11T06:28:29.870Z,20.42
2022-10-11T06:29:32.433Z,17.35
2022-10-11T06:30:33.987Z,17.55
2022-10-11T06:31:36.904Z,18.30
2022-10-11T06:32:38.430Z,18.90
2022-10-11T06:33:41.116Z,16.52
2022-10-11T06:34:42.644Z,15.82
2022-10-11T06:35:45.173Z,16.60
2022-10-11T06:36:46.745Z,16.65
2022-10-11T06:37:49.237Z,16.92
2022-10-11T06:38:51.580Z,16.63
2022-10-11T06:39:54.059Z,16.50
2022-10-11T06:40:55.607Z,17.20
2022-10-11T06:50:58.577Z,17.07
2022-10-11T06:52:00.515Z,17.58
2022-10-11T06:53:02.048Z,16.92
2022-10-11T06:54:05.211Z,17.63
2022-10-11T06:55:07.562Z,15.32
2022-10-11T06:56:12.673Z,15.30
2022-10-11T06:57:14.236Z,13.90
2022-10-11T06:58:16.821Z,15.30
2022-10-11T06:59:18.469Z,15.93
2022-10-11T07:00:21.720Z,15.70
2022-10-11T07:06:07.642Z,15.80
2022-10-11T07:07:13.903Z,16.45
2022-10-11T07:08:15.457Z,16.42
2022-10-11T07:09:17.944Z,16.33
2022-10-11T07:10:19.762Z,18.45
2022-10-11T07:11:23.897Z,16.25
2022-10-11T07:12:25.457Z,17.40
2022-10-11T07:13:28.304Z,17.10
2022-10-11T07:14:30.892Z,15.25
2022-10-11T07:15:36.147Z,14.40
2022-10-11T07:16:38.701Z,16.45
2022-10-11T07:17:40.304Z,16.00
2022-10-11T07:18:42.804Z,16.27
2022-10-11T07:19:45.608Z,15.93
2022-10-11T07:20:47.190Z,17.13
2022-10-11T07:21:50.093Z,14.88
2022-10-11T07:22:52.974Z,16.45
2022-10-11T07:23:55.467Z,16.50
2022-10-11T07:24:57.081Z,16.65
2022-10-11T07:26:01.687Z,16.42
2022-10-11T07:27:03.405Z,16.27
2022-10-11T07:28:06.062Z,17.23
2022-10-11T07:29:08.877Z,16.60
2022-10-11T07:30:12.195Z,15.73
2022-10-11T07:31:15.652Z,15.75
2022-10-11T07:32:18.127Z,15.20
2022-10-11T07:33:19.678Z,15.10
2022-10-11T07:34:22.786Z,16.85
2022-10-11T07:35:24.383Z,16.05
2022-10-11T07:36:27.071Z,14.00
2022-10-11T07:37:28.613Z,12.95
2022-10-11T07:38:32.682Z,15.07
2022-10-11T07:39:34.519Z,13.73
2022-10-11T07:40:43.196Z,13.80
2022-10-11T07:41:46.218Z,13.02
2022-10-11T07:42:47.827Z,12.32
2022-10-11T07:43:50.908Z,12.50
2022-10-11T07:44:53.706Z,13.52
2022-10-11T07:47:13.142Z,12.20
2022-10-11T07:51:47.624Z,12.30
2022-10-11T07:52:49.167Z,12.52
2022-10-11T07:53:55.342Z,10.55
2022-10-11T07:54:56.825Z,12.52
2022-10-11T07:56:02.092Z,11.95
2022-10-11T07:57:04.036Z,12.93
2022-10-11T07:58:07.169Z,12.30
2022-10-11T07:59:12.315Z,11.63
2022-10-11T08:00:14.342Z,11.82
2022-10-11T08:01:17.540Z,13.25
2022-10-11T08:02:20.220Z,12.68
2022-10-11T08:03:21.970Z,11.57
2022-10-11T08:04:24.427Z,12.25
2022-10-11T08:05:25.978Z,14.73
2022-10-11T08:06:32.279Z,14.77
2022-10-11T08:07:34.995Z,12.18
2022-10-11T08:08:37.459Z,14.30
2022-10-11T08:09:41.275Z,11.77
2022-10-11T08:15:51.988Z,14.13
2022-10-11T08:16:54.489Z,14.40
2022-10-11T08:17:56.007Z,14.02
2022-10-11T08:18:58.662Z,12.20
2022-10-11T08:20:00.236Z,13.30
2022-10-11T08:21:07.125Z,12.57
2022-10-11T08:22:08.678Z,12.45
2022-10-11T08:23:11.801Z,16.15
2022-10-11T08:24:14.829Z,16.88
2022-10-11T08:25:17.879Z,16.55
2022-10-11T08:26:20.360Z,17.15
2022-10-11T08:27:23.055Z,18.58
2022-10-11T08:28:24.697Z,16.10
2022-10-11T08:29:28.778Z,16.15
2022-10-11T08:30:30.349Z,16.75
2022-10-11T08:31:34.573Z,16.23
2022-10-11T08:32:37.221Z,16.45
2022-10-11T08:33:39.706Z,19.75
2022-10-11T08:34:41.305Z,18.95
2022-10-11T08:35:43.802Z,20.10
2022-10-11T08:36:48.372Z,19.70
2022-10-11T08:37:49.925Z,19.65
2022-10-11T08:38:52.504Z,21.10
2022-10-11T08:39:54.581Z,18.70
2022-10-11T08:40:59.960Z,17.73
2022-10-11T08:42:05.277Z,18.13
2022-10-11T08:43:16.277Z,17.55
2022-10-11T08:44:58.405Z,16.48
2022-10-11T08:46:00.962Z,20.52
2022-10-11T08:47:09.359Z,20.63
2022-10-11T08:48:16.862Z,21.33
2022-10-11T08:49:23.138Z,21.52
2022-10-11T08:50:26.647Z,17.92
2022-10-11T08:51:32.086Z,17.45
2022-10-11T08:52:43.741Z,17.58
2022-10-11T08:53:52.928Z,18.52
2022-10-11T08:54:58.117Z,17.30
2022-10-11T08:56:03.052Z,17.50
2022-10-11T08:57:07.309Z,17.55
2022-10-11T08:58:13.380Z,21.00
2022-10-11T08:59:29.998Z,19.33
2022-10-11T09:00:36.220Z,19.88
2022-10-11T09:03:59.971Z,20.23
2022-10-11T09:05:03.084Z,21.35
2022-10-11T09:08:36.909Z,19.98
2022-10-11T09:09:57.839Z,20.48
2022-10-11T09:11:09.050Z,21.30
2022-10-11T09:12:19.239Z,20.35
2022-10-11T09:13:41.482Z,19.98
2022-10-11T09:15:04.070Z,22.02
2022-10-11T09:16:18.586Z,22.45
2022-10-11T09:17:36.079Z,20.90
2022-10-11T09:19:02.996Z,24.50
2022-10-11T09:20:25.109Z,22.23
2022-10-11T09:21:38.737Z,23.38
2022-10-11T09:22:49.883Z,21.10
2022-10-11T09:24:20.460Z,23.40
2022-10-11T09:25:26.494Z,24.25
2022-10-11T09:26:37.859Z,21.10
2022-10-11T09:28:01.941Z,21.40
2022-10-11T09:29:14.765Z,22.45
2022-10-11T09:30:19.015Z,24.20
2022-10-11T09:31:23.494Z,22.15
2022-10-11T09:32:32.022Z,21.70
2022-10-11T09:33:38.819Z,26.50
2022-10-11T09:34:40.510Z,21.35
2022-10-11T09:35:47.132Z,22.10
2022-10-11T09:36:58.418Z,23.60
2022-10-11T09:38:05.030Z,23.98
2022-10-11T09:39:17.361Z,23.70
2022-10-11T09:40:33.547Z,24.40
2022-10-11T09:41:44.131Z,23.15
2022-10-11T09:42:45.669Z,22.10
2022-10-11T09:43:49.218Z,24.23
2022-10-11T09:44:51.516Z,23.40
2022-10-11T09:45:54.505Z,24.45
2022-10-11T09:46:57.620Z,23.42
2022-10-11T09:48:03.070Z,21.75
2022-10-11T09:49:12.316Z,23.70
2022-10-11T09:50:16.408Z,25.10
2022-10-11T09:51:22.561Z,25.25
2022-10-11T09:52:25.828Z,24.20
2022-10-11T09:53:49.307Z,24.70
2022-10-11T09:54:55.313Z,24.10
2022-10-11T09:56:05.344Z,26.38
2022-10-11T09:57:19.293Z,24.00
2022-10-11T09:58:29.846Z,24.52
2022-10-11T09:59:32.444Z,27.52
2022-10-11T10:00:35.101Z,26.33
2022-10-11T10:06:27.381Z,28.02
2022-10-11T10:07:30.725Z,28.00
2022-10-11T10:08:33.274Z,28.38
2022-10-11T10:09:34.791Z,27.80
2022-10-11T10:10:40.045Z,27.02
2022-10-11T10:11:42.001Z,25.30
2022-10-11T10:12:53.791Z,26.35
2022-10-11T10:13:57.811Z,26.90
2022-10-11T10:15:09.054Z,29.83
2022-10-11T10:21:33.515Z,27.05
2022-10-11T10:22:35.837Z,25.35
2022-10-11T10:23:38.618Z,27.52
2022-10-11T10:24:42.335Z,25.98
2022-10-11T10:25:50.942Z,27.52
2022-10-11T10:27:06.919Z,28.23
2022-10-11T10:28:21.405Z,26.67
2022-10-11T10:29:23.928Z,28.98
2022-10-11T10:30:30.725Z,29.13
2022-10-11T10:32:01.517Z,30.42
2022-10-11T10:33:04.409Z,27.90
2022-10-11T10:34:14.418Z,28.88
2022-10-11T10:35:28.025Z,30.50
2022-10-11T10:36:35.160Z,28.45
2022-10-11T10:37:43.613Z,30.92
2022-10-11T10:38:52.330Z,29.95
2022-10-11T10:39:57.770Z,31.95
2022-10-11T10:41:03.832Z,28.75
2022-10-11T10:42:13.315Z,30.25
2022-10-11T10:43:19.597Z,29.88
2022-10-11T10:44:21.077Z,28.10
2022-10-11T10:45:29.175Z,30.13
2022-10-11T10:46:49.892Z,30.17
2022-10-11T10:48:17.089Z,30.02
2022-10-11T10:49:52.715Z,29.40
2022-10-11T10:50:55.532Z,29.00
2022-10-11T10:52:11.222Z,27.85
2022-10-11T10:53:24.025Z,29.02
2022-10-11T10:54:38.661Z,27.77
2022-10-11T10:55:45.432Z,31.85
2022-10-11T10:56:52.879Z,28.27
2022-10-11T10:58:18.935Z,26.52
2022-10-11T10:59:41.477Z,29.58
2022-10-11T11:00:48.056Z,28.60
2022-10-11T11:02:06.792Z,30.08
2022-10-11T11:03:35.356Z,28.75
2022-10-11T11:04:37.741Z,31.02
2022-10-11T11:05:48.337Z,31.02
2022-10-11T11:06:55.692Z,31.45
2022-10-11T11:08:05.727Z,29.70
2022-10-11T11:09:29.300Z,30.40
2022-10-11T11:10:36.585Z,30.23
2022-10-11T11:11:56.594Z,33.85
2022-10-11T11:13:17.833Z,31.90
2022-10-11T11:14:33.934Z,31.33
2022-10-11T11:15:43.776Z,33.67
2022-10-11T11:16:50.006Z,32.60
2022-10-11T11:18:16.436Z,32.08
2022-10-11T11:19:30.718Z,32.17
2022-10-11T11:20:50.211Z,30.30
2022-10-11T11:22:00.430Z,32.80
2022-10-11T11:23:11.601Z,28.30
2022-10-11T11:24:24.957Z,29.92
2022-10-11T11:25:35.308Z,30.50
2022-10-11T11:26:44.665Z,27.27
2022-10-11T11:28:04.465Z,29.67
2022-10-11T11:29:16.111Z,32.00
2022-10-11T11:30:22.333Z,30.77
2022-10-11T11:31:41.724Z,30.85
2022-10-11T11:32:53.923Z,33.25
2022-10-11T11:34:05.989Z,32.47
2022-10-11T11:35:24.276Z,33.20
2022-10-11T11:36:35.522Z,34.50
2022-10-11T11:37:40.671Z,36.25
2022-10-11T11:38:51.733Z,34.78
2022-10-11T11:40:00.537Z,34.15
2022-10-11T11:41:06.177Z,35.15
2022-10-11T11:42:15.211Z,33.45
2022-10-11T11:43:23.472Z,33.00
2022-10-11T11:44:31.403Z,36.03
2022-10-11T11:45:45.528Z,33.63
2022-10-11T11:46:54.225Z,30.65
2022-10-11T11:48:02.419Z,30.80
2022-10-11T11:49:13.208Z,30.17
2022-10-11T11:50:22.329Z,31.05
2022-10-11T11:51:31.546Z,31.00
2022-10-11T11:52:38.312Z,29.92
2022-10-11T11:53:50.676Z,30.08
2022-10-11T11:55:04.098Z,31.77
2022-10-11T11:56:13.550Z,30.33
2022-10-11T11:57:26.814Z,29.30
2022-10-11T11:58:38.437Z,30.10
2022-10-11T11:59:47.515Z,30.40
2022-10-11T12:01:03.331Z,27.40
2022-10-11T12:02:36.019Z,27.92
2022-10-11T12:03:42.135Z,27.23
2022-10-11T12:04:48.193Z,24.70
2022-10-11T12:06:27.164Z,24.10
2022-10-11T12:07:29.998Z,24.50
2022-10-11T12:08:35.684Z,25.00
2022-10-11T12:09:39.019Z,26.15
2022-10-11T12:10:56.705Z,22.45
2022-10-11T12:12:00.684Z,19.77
2022-10-11T12:13:29.675Z,25.83
2022-10-11T12:14:39.013Z,27.40
2022-10-11T12:15:58.982Z,26.70
2022-10-11T12:19:21.985Z,25.60
2022-10-11T12:20:25.915Z,24.08
2022-10-11T12:21:32.560Z,21.20
2022-10-11T12:26:41.676Z,19.88
2022-10-11T12:27:45.532Z,13.98
2022-10-11T12:29:06.713Z,14.68
2022-10-11T12:30:42.445Z,13.10
2022-10-11T12:31:47.668Z,8.80
2022-10-11T12:32:52.484Z,10.15
2022-10-11T12:34:18.510Z,8.35
2022-10-11T12:35:39.918Z,8.85
2022-10-11T12:36:43.732Z,8.73
2022-10-11T12:37:50.477Z,8.88
2022-10-11T12:39:26.497Z,12.65
2022-10-11T12:40:42.023Z,10.35
2022-10-11T12:41:53.511Z,9.73
2022-10-11T12:43:31.644Z,10.23
2022-10-11T12:44:33.595Z,8.07
2022-10-11T12:45:36.257Z,9.55
2022-10-11T12:47:14.460Z,9.57
2022-10-11T12:48:53.189Z,9.43
2022-10-11T12:50:13.152Z,8.30
2022-10-11T12:51:31.188Z,9.30
2022-10-11T12:52:40.696Z,7.32
2022-10-11T12:54:26.317Z,9.18
2022-10-11T12:55:38.437Z,9.00
2022-10-11T12:56:49.377Z,8.30
2022-10-11T12:58:14.946Z,8.93
2022-10-11T12:59:21.914Z,7.72
2022-10-11T13:00:29.910Z,10.95
2022-10-11T13:01:36.973Z,8.23
2022-10-11T13:02:42.516Z,8.07
2022-10-11T13:03:47.471Z,9.52
2022-10-11T13:04:51.483Z,8.63
2022-10-11T13:06:00.441Z,7.82
2022-10-11T13:07:13.669Z,9.45
2022-10-11T13:08:37.313Z,8.07
2022-10-11T13:09:46.608Z,8.13
2022-10-11T13:10:52.619Z,7.82
2022-10-11T13:11:59.920Z,9.00
2022-10-11T13:13:04.359Z,8.18
2022-10-11T13:14:10.567Z,8.85
2022-10-11T13:15:15.629Z,8.70
2022-10-11T13:16:20.620Z,8.98
2022-10-11T13:17:27.028Z,8.00
2022-10-11T13:18:28.608Z,9.15
2022-10-11T13:19:32.820Z,7.40
2022-10-11T13:20:38.868Z,7.45
2022-10-11T13:21:44.436Z,8.98
2022-10-11T13:22:49.884Z,8.43
2022-10-11T13:23:57.899Z,7.60
2022-10-11T13:25:00.470Z,7.63
2022-10-11T13:26:02.553Z,7.13
2022-10-11T13:27:07.022Z,7.60
2022-10-11T13:28:09.351Z,7.95
2022-10-11T13:29:17.353Z,7.30
2022-10-11T13:30:21.768Z,8.52
2022-10-11T13:31:25.173Z,7.60
2022-10-11T13:32:29.648Z,8.30
2022-10-11T13:33:35.458Z,7.10
2022-10-11T13:34:40.903Z,8.07
2022-10-11T13:35:44.875Z,7.43
2022-10-11T13:36:47.516Z,7.97
2022-10-11T13:37:49.413Z,7.03
2022-10-11T13:38:57.974Z,8.55
2022-10-11T13:40:05.803Z,7.60
2022-10-11T13:41:09.238Z,7.93
2022-10-11T13:42:16.243Z,7.53
2022-10-11T13:43:21.563Z,7.40
2022-10-11T13:44:24.826Z,7.20
2022-10-11T13:45:30.485Z,7.63
2022-10-11T13:46:34.299Z,7.00
2022-10-11T13:47:35.982Z,7.45
2022-10-11T13:48:40.324Z,7.03
2022-10-11T13:49:46.801Z,7.78
2022-10-11T13:51:09.227Z,6.55
2022-10-11T13:52:21.274Z,7.60
2022-10-11T13:53:25.682Z,7.53
2022-10-11T13:55:08.891Z,8.35
2022-10-11T13:56:12.420Z,6.35
2022-10-11T13:57:14.689Z,8.05
2022-10-11T13:58:22.480Z,7.05
2022-10-11T13:59:25.432Z,8.38
2022-10-11T14:00:31.979Z,7.85
2022-10-11T14:01:40.932Z,6.75
2022-10-11T14:02:48.413Z,7.38
2022-10-11T14:03:58.450Z,8.18
2022-10-11T14:05:00.181Z,7.40
2022-10-11T14:06:03.742Z,7.63
2022-10-11T14:07:07.012Z,7.88
2022-10-11T14:08:25.324Z,7.72
2022-10-11T14:09:30.104Z,7.40
2022-10-11T14:10:33.986Z,7.03
2022-10-11T14:11:38.285Z,6.78
2022-10-11T14:12:44.355Z,7.13
2022-10-11T14:13:49.652Z,7.50
2022-10-11T14:14:51.545Z,7.15
2022-10-11T14:16:01.731Z,6.88
2022-10-11T14:17:05.915Z,8.30
2022-10-11T14:18:32.589Z,7.32
2022-10-11T14:19:35.110Z,7.13
2022-10-11T14:20:39.696Z,8.00
2022-10-11T14:21:51.104Z,7.00
2022-10-11T14:22:55.278Z,7.72
2022-10-11T14:23:59.179Z,7.50
2022-10-11T14:25:01.682Z,7.50
2022-10-11T14:26:03.675Z,7.28
2022-10-11T14:27:07.251Z,8.15
2022-10-11T14:28:13.786Z,9.10
2022-10-11T14:29:21.894Z,8.48
2022-10-11T14:30:27.802Z,8.70
2022-10-11T14:31:30.367Z,8.63
2022-10-11T14:32:34.991Z,8.40
2022-10-11T14:33:37.525Z,8.85
2022-10-11T14:34:40.189Z,8.65
2022-10-11T14:35:43.178Z,9.10
2022-10-11T14:36:45.757Z,8.00
2022-10-11T14:37:47.441Z,8.80
2022-10-11T14:38:51.382Z,10.20
2022-10-11T14:39:53.140Z,9.98
2022-10-11T14:40:55.865Z,10.57
2022-10-11T14:41:57.820Z,8.98
2022-10-11T14:43:00.323Z,9.30
2022-10-11T14:44:02.062Z,10.18
2022-10-11T14:45:06.334Z,11.80
2022-10-11T14:46:20.045Z,9.40
2022-10-11T14:47:21.598Z,9.68
2022-10-11T14:48:50.141Z,10.73
2022-10-11T14:49:46.761Z,10.63
2022-10-11T14:50:53.273Z,9.90
2022-10-11T14:51:57.696Z,11.57
2022-10-11T14:53:01.203Z,11.07
2022-10-11T14:54:05.131Z,10.02
2022-10-11T14:55:07.231Z,10.93
2022-10-11T14:56:09.873Z,10.60
2022-10-11T14:57:12.463Z,10.32
2022-10-11T14:58:17.507Z,10.32
2022-10-11T14:59:21.728Z,12.05
2022-10-11T15:00:26.934Z,10.95
2022-10-11T15:01:28.727Z,11.68
2022-10-11T15:02:31.459Z,11.10
2022-10-11T15:03:36.078Z,12.45
2022-10-11T15:04:38.014Z,10.70
2022-10-11T15:05:40.718Z,11.15
2022-10-11T15:06:42.402Z,11.38
2022-10-11T15:07:45.099Z,10.02
2022-10-11T15:08:46.763Z,10.93
2022-10-11T15:09:50.744Z,10.18
2022-10-11T15:10:52.517Z,10.90
2022-10-11T15:11:55.718Z,11.50
2022-10-11T15:12:57.447Z,11.35
2022-10-11T15:14:00.456Z,10.52
2022-10-11T15:15:02.105Z,10.45
2022-10-11T15:16:05.024Z,11.20
2022-10-11T15:17:06.797Z,9.75
2022-10-11T15:18:13.638Z,9.85
2022-10-11T15:19:18.213Z,9.20
2022-10-11T15:20:24.188Z,8.93
2022-10-11T15:21:29.737Z,11.20
2022-10-11T15:22:31.388Z,9.98
2022-10-11T15:23:34.278Z,9.93
2022-10-11T15:24:36.790Z,8.45
2022-10-11T15:25:40.740Z,7.85
2022-10-11T15:26:43.928Z,9.27
2022-10-11T15:27:45.965Z,9.10
2022-10-11T15:28:49.800Z,9.90
2022-10-11T15:29:52.433Z,8.18
2022-10-11T15:30:54.937Z,8.07
2022-10-11T15:31:57.385Z,9.18
2022-10-11T15:32:59.075Z,7.38
2022-10-11T15:34:01.874Z,7.97
2022-10-11T15:35:03.615Z,7.43
2022-10-11T15:36:08.187Z,7.45
2022-10-11T15:37:11.107Z,8.15
2022-10-11T15:38:17.171Z,8.13
2022-10-11T15:39:26.608Z,9.10
2022-10-11T15:40:33.225Z,7.97
2022-10-11T15:41:37.652Z,8.32
2022-10-11T15:42:39.337Z,9.00